createdAt,value
2018-12-11T00:01:04.699Z,73.45
2018-12-11T00:03:33.789Z,73.24
2018-12-11T00:06:02.507Z,73.06
2018-12-11T00:08:31.851Z,72.89
2018-12-11T00:11:00.923Z,72.94
2018-12-11T00:13:30.214Z,72.86
2018-12-11T00:15:59.283Z,73.03
2018-12-11T00:18:28.005Z,73.32
2018-12-11T00:20:57.160Z,73.50
2018-12-11T00:23:26.170Z,72.99
2018-12-11T00:25:55.128Z,73.00
2018-12-11T00:28:24.189Z,72.84
2018-12-11T00:30:53.078Z,72.83
2018-12-11T00:33:21.723Z,72.67
2018-12-11T00:35:50.814Z,72.68
2018-12-11T00:38:19.557Z,72.76
2018-12-11T00:40:48.617Z,72.50
2018-12-11T00:43:17.507Z,72.29
2018-12-11T00:45:46.410Z,72.17
2018-12-11T00:48:15.493Z,72.22
2018-12-11T00:50:44.534Z,72.14
2018-12-11T00:53:13.282Z,71.51
2018-12-11T00:55:42.364Z,71.88
2018-12-11T00:58:11.507Z,71.57
2018-12-11T01:00:40.550Z,71.36
2018-12-11T01:03:09.565Z,71.29
2018-12-11T01:05:38.739Z,71.17
2018-12-11T01:08:07.721Z,71.24
2018-12-11T01:10:37.063Z,71.42
2018-12-11T01:13:05.841Z,71.12
2018-12-11T01:15:35.117Z,70.43
2018-12-11T01:18:03.951Z,71.07
2018-12-11T01:20:32.919Z,70.60
2018-12-11T01:23:02.127Z,70.28
2018-12-11T01:25:30.935Z,70.50
2018-12-11T01:28:00.128Z,70.37
2018-12-11T01:30:28.847Z,70.76
2018-12-11T01:32:57.889Z,70.35
2018-12-11T01:35:27.077Z,70.41
2018-12-11T01:37:55.969Z,70.29
2018-12-11T01:40:24.913Z,69.86
2018-12-11T01:42:53.941Z,69.38
2018-12-11T01:45:22.755Z,69.92
2018-12-11T01:47:51.653Z,68.92
2018-12-11T01:50:20.457Z,68.97
2018-12-11T01:52:49.082Z,68.77
2018-12-11T01:55:18.004Z,69.25
2018-12-11T01:57:47.341Z,69.55
2018-12-11T02:00:16.157Z,69.05
2018-12-11T02:02:45.289Z,69.82
2018-12-11T02:05:14.016Z,70.09
2018-12-11T02:07:43.063Z,69.99
2018-12-11T02:10:12.771Z,70.62
2018-12-11T02:12:41.537Z,70.25
2018-12-11T02:15:10.447Z,70.91
2018-12-11T02:17:39.523Z,70.02
2018-12-11T02:20:09.492Z,69.63
2018-12-11T02:22:38.716Z,69.57
2018-12-11T02:25:07.631Z,69.64
2018-12-11T02:27:36.358Z,69.43
2018-12-11T02:30:05.907Z,68.98
2018-12-11T02:32:34.726Z,68.79
2018-12-11T02:35:03.934Z,68.69
2018-12-11T02:37:33.053Z,68.00
2018-12-11T02:40:02.164Z,67.85
2018-12-11T02:42:31.270Z,67.85
2018-12-11T02:44:59.992Z,68.34
2018-12-11T02:47:29.002Z,68.41
2018-12-11T02:49:57.771Z,68.61
2018-12-11T02:52:26.637Z,68.62
2018-12-11T02:54:55.540Z,68.89
2018-12-11T02:57:24.676Z,68.77
2018-12-11T02:59:53.711Z,69.23
2018-12-11T03:02:22.774Z,68.76
2018-12-11T03:04:51.438Z,68.03
2018-12-11T03:07:20.154Z,67.96
2018-12-11T03:09:48.924Z,68.50
2018-12-11T03:12:18.043Z,67.84
2018-12-11T03:14:47.111Z,67.61
2018-12-11T03:17:16.229Z,67.80
2018-12-11T03:19:45.310Z,67.93
2018-12-11T03:22:14.097Z,68.06
2018-12-11T03:24:42.895Z,67.60
2018-12-11T03:27:12.001Z,67.83
2018-12-11T03:29:41.249Z,67.93
2018-12-11T03:32:10.283Z,67.65
2018-12-11T03:34:39.281Z,67.98
2018-12-11T03:37:08.374Z,67.86
2018-12-11T03:39:37.096Z,67.26
2018-12-11T03:42:06.087Z,67.46
2018-12-11T03:44:35.049Z,67.12
2018-12-11T03:47:04.552Z,67.14
2018-12-11T03:49:33.467Z,67.23
2018-12-11T03:52:02.162Z,66.63
2018-12-11T03:54:31.237Z,67.02
2018-12-11T03:56:59.963Z,65.93
2018-12-11T03:59:28.685Z,66.28
2018-12-11T04:01:57.783Z,66.42
2018-12-11T04:04:26.894Z,66.56
2018-12-11T04:06:55.840Z,66.43
2018-12-11T04:09:24.593Z,66.06
2018-12-11T04:11:53.897Z,65.74
2018-12-11T04:14:23.104Z,65.62
2018-12-11T04:16:52.067Z,65.50
2018-12-11T04:19:20.758Z,65.21
2018-12-11T04:21:49.450Z,65.16
2018-12-11T04:24:18.310Z,64.88
2018-12-11T04:26:47.297Z,65.06
2018-12-11T04:29:16.426Z,64.55
2018-12-11T04:31:45.543Z,64.57
2018-12-11T04:34:14.476Z,64.71
2018-12-11T04:36:44.334Z,64.84
2018-12-11T04:39:13.247Z,64.75
2018-12-11T04:41:42.509Z,64.68
2018-12-11T04:44:11.694Z,64.24
2018-12-11T04:46:40.462Z,65.10
2018-12-11T04:49:09.290Z,65.13
2018-12-11T04:51:38.003Z,65.94
2018-12-11T04:54:07.437Z,66.73
2018-12-11T04:56:36.662Z,66.44
2018-12-11T04:59:05.383Z,67.46
2018-12-11T05:01:34.548Z,67.52
2018-12-11T05:04:03.637Z,67.42
2018-12-11T05:06:33.491Z,68.13
2018-12-11T05:09:02.898Z,68.22
2018-12-11T05:11:31.736Z,68.79
2018-12-11T05:14:00.980Z,68.65
2018-12-11T05:16:29.924Z,68.74
2018-12-11T05:18:58.919Z,68.83
2018-12-11T05:21:28.025Z,68.86
2018-12-11T05:23:56.755Z,68.86
2018-12-11T05:26:25.817Z,68.85
2018-12-11T05:28:54.922Z,68.89
2018-12-11T05:31:23.604Z,68.85
2018-12-11T05:33:52.706Z,68.72
2018-12-11T05:36:21.579Z,68.30
2018-12-11T05:38:50.493Z,68.08
2018-12-11T05:41:19.345Z,67.57
2018-12-11T05:43:48.324Z,66.69
2018-12-11T05:46:17.183Z,67.14
2018-12-11T05:48:46.392Z,66.85
2018-12-11T05:51:15.444Z,66.23
2018-12-11T05:53:50.469Z,66.41
2018-12-11T05:56:19.226Z,65.64
2018-12-11T05:58:48.188Z,66.12
2018-12-11T06:01:17.362Z,65.97
2018-12-11T06:03:46.303Z,65.81
2018-12-11T06:06:15.391Z,65.51
2018-12-11T06:08:44.592Z,65.43
2018-12-11T06:11:13.658Z,65.47
2018-12-11T06:13:42.471Z,65.24
2018-12-11T06:16:11.324Z,65.10
2018-12-11T06:18:40.133Z,65.45
2018-12-11T06:21:09.535Z,65.19
2018-12-11T06:23:40.104Z,65.25
2018-12-11T06:26:09.163Z,65.08
2018-12-11T06:28:37.925Z,64.94
2018-12-11T06:31:06.955Z,64.20
2018-12-11T06:33:36.154Z,63.98
2018-12-11T06:36:05.205Z,63.64
2018-12-11T06:38:34.197Z,63.79
2018-12-11T06:41:03.396Z,63.42
2018-12-11T06:43:32.404Z,63.59
2018-12-11T06:46:01.292Z,62.65
2018-12-11T06:48:30.202Z,62.39
2018-12-11T06:50:58.905Z,62.32
2018-12-11T06:53:29.185Z,62.53
2018-12-11T06:55:58.369Z,62.58
2018-12-11T06:58:27.407Z,63.07
2018-12-11T07:00:56.474Z,62.78
2018-12-11T07:03:25.481Z,62.69
2018-12-11T07:05:54.464Z,62.28
2018-12-11T07:08:23.264Z,62.86
2018-12-11T07:10:51.957Z,62.69
2018-12-11T07:13:21.043Z,62.16
2018-12-11T07:15:50.240Z,61.73
2018-12-11T07:18:19.178Z,62.20
2018-12-11T07:20:48.749Z,61.89
2018-12-11T07:23:17.836Z,61.91
2018-12-11T07:25:46.942Z,61.57
2018-12-11T07:28:15.988Z,61.67
2018-12-11T07:30:45.102Z,61.59
2018-12-11T07:33:13.862Z,61.18
2018-12-11T07:35:42.524Z,61.45
2018-12-11T07:38:11.489Z,61.18
2018-12-11T07:40:40.422Z,61.17
2018-12-11T07:43:09.201Z,61.21
2018-12-11T07:45:38.064Z,60.26
2018-12-11T07:48:06.826Z,60.50
2018-12-11T07:50:36.137Z,60.25
2018-12-11T07:53:06.608Z,59.73
2018-12-11T07:55:36.092Z,59.27
2018-12-11T07:58:05.256Z,59.65
2018-12-11T08:00:34.148Z,59.92
2018-12-11T08:03:03.155Z,59.79
2018-12-11T08:05:32.145Z,59.93
2018-12-11T08:08:01.249Z,60.09
2018-12-11T08:10:30.059Z,60.33
2018-12-11T08:12:59.126Z,59.36
2018-12-11T08:15:28.432Z,59.84
2018-12-11T08:17:57.355Z,58.95
2018-12-11T08:20:26.085Z,59.96
2018-12-11T08:22:55.069Z,60.11
2018-12-11T08:25:24.307Z,58.62
2018-12-11T08:27:53.423Z,58.38
2018-12-11T08:30:22.167Z,58.61
2018-12-11T08:32:51.686Z,58.23
2018-12-11T08:35:20.901Z,58.33
2018-12-11T08:37:50.057Z,56.57
2018-12-11T08:40:19.077Z,57.80
2018-12-11T08:42:47.753Z,58.45
2018-12-11T08:45:16.525Z,57.25
2018-12-11T08:47:45.560Z,56.96
2018-12-11T08:50:14.662Z,57.37
2018-12-11T08:52:43.347Z,57.56
2018-12-11T08:55:12.077Z,57.93
2018-12-11T08:57:42.369Z,56.63
2018-12-11T09:00:11.333Z,57.09
2018-12-11T09:02:40.912Z,56.38
2018-12-11T09:05:10.435Z,56.46
2018-12-11T09:07:39.133Z,56.54
2018-12-11T09:10:08.337Z,55.47
2018-12-11T09:12:37.352Z,54.67
2018-12-11T09:15:06.752Z,54.35
2018-12-11T09:17:35.813Z,54.43
2018-12-11T09:20:04.770Z,54.84
2018-12-11T09:22:33.650Z,54.25
2018-12-11T09:25:02.372Z,54.27
2018-12-11T09:27:31.399Z,54.99
2018-12-11T09:30:00.595Z,54.11
2018-12-11T09:32:29.582Z,54.38
2018-12-11T09:34:58.336Z,53.60
2018-12-11T09:37:27.411Z,53.65
2018-12-11T09:39:57.074Z,53.84
2018-12-11T09:42:28.114Z,53.67
2018-12-11T09:44:57.304Z,54.11
2018-12-11T09:47:26.214Z,54.65
2018-12-11T09:49:55.012Z,54.33
2018-12-11T09:52:23.786Z,54.17
2018-12-11T09:54:52.622Z,53.72
2018-12-11T09:57:21.681Z,52.66
2018-12-11T09:59:50.758Z,52.44
2018-12-11T10:02:19.675Z,51.73
2018-12-11T10:04:48.661Z,51.43
2018-12-11T10:07:17.711Z,52.07
2018-12-11T10:09:47.357Z,50.60
2018-12-11T10:12:16.936Z,50.27
2018-12-11T10:14:45.561Z,50.96
2018-12-11T10:17:15.235Z,50.11
2018-12-11T10:19:44.541Z,49.75
2018-12-11T10:22:13.666Z,50.50
2018-12-11T10:24:43.073Z,49.93
2018-12-11T10:27:11.833Z,49.47
2018-12-11T10:29:40.541Z,49.53
2018-12-11T10:32:09.637Z,49.83
2018-12-11T10:34:38.331Z,49.11
2018-12-11T10:37:07.143Z,48.95
2018-12-11T10:39:36.093Z,48.52
2018-12-11T10:42:05.312Z,48.72
2018-12-11T10:44:34.378Z,48.48
2018-12-11T10:47:03.404Z,48.21
2018-12-11T10:49:32.651Z,49.06
2018-12-11T10:52:01.408Z,48.53
2018-12-11T10:54:30.554Z,48.15
2018-12-11T10:56:59.395Z,48.13
2018-12-11T10:59:28.214Z,47.74
2018-12-11T11:01:59.401Z,47.81
2018-12-11T11:04:28.614Z,47.34
2018-12-11T11:06:57.260Z,47.43
2018-12-11T11:09:26.139Z,47.21
2018-12-11T11:11:55.173Z,47.14
2018-12-11T11:14:25.243Z,45.85
2018-12-11T11:16:54.540Z,46.32
2018-12-11T11:19:23.571Z,46.65
2018-12-11T11:21:52.667Z,46.37
2018-12-11T11:24:21.384Z,46.56
2018-12-11T11:26:50.972Z,46.36
2018-12-11T11:29:19.951Z,46.18
2018-12-11T11:31:50.435Z,46.65
2018-12-11T11:34:19.157Z,46.54
2018-12-11T11:36:48.204Z,46.60
2018-12-11T11:39:16.989Z,46.46
2018-12-11T11:41:46.228Z,46.80
2018-12-11T11:44:15.154Z,46.95
2018-12-11T11:46:43.905Z,46.89
2018-12-11T11:49:12.591Z,45.78
2018-12-11T11:51:41.689Z,45.62
2018-12-11T11:54:10.440Z,46.33
2018-12-11T11:56:39.512Z,45.57
2018-12-11T11:59:08.211Z,46.06
2018-12-11T12:01:37.273Z,45.31
2018-12-11T12:04:06.365Z,45.15
2018-12-11T12:06:35.459Z,44.58
2018-12-11T12:09:05.496Z,43.69
2018-12-11T12:11:34.472Z,44.03
2018-12-11T12:14:03.754Z,43.54
2018-12-11T12:16:32.774Z,43.92
2018-12-11T12:19:01.534Z,44.77
2018-12-11T12:21:30.462Z,45.38
2018-12-11T12:23:59.249Z,44.26
2018-12-11T12:26:28.468Z,43.13
2018-12-11T12:28:57.642Z,41.18
2018-12-11T12:31:26.682Z,41.19
2018-12-11T12:33:55.635Z,42.79
2018-12-11T12:36:24.414Z,42.49
2018-12-11T12:38:53.487Z,42.17
2018-12-11T12:41:23.358Z,42.67
2018-12-11T12:43:52.446Z,43.24
2018-12-11T12:46:21.851Z,43.12
2018-12-11T12:48:51.752Z,43.86
2018-12-11T12:51:20.815Z,43.44
2018-12-11T12:53:49.561Z,43.89
2018-12-11T12:56:18.343Z,43.34
2018-12-11T12:58:47.416Z,43.32
2018-12-11T13:01:16.421Z,43.40
2018-12-11T13:03:45.784Z,43.25
2018-12-11T13:06:14.477Z,42.80
2018-12-11T13:08:43.418Z,41.92
2018-12-11T13:11:12.592Z,41.09
2018-12-11T13:13:41.648Z,40.52
2018-12-11T13:16:10.436Z,41.36
2018-12-11T13:18:39.515Z,42.38
2018-12-11T13:21:08.541Z,42.93
2018-12-11T13:23:37.771Z,42.80
2018-12-11T13:26:06.444Z,43.13
2018-12-11T13:28:35.453Z,43.69
2018-12-11T13:31:04.129Z,43.62
2018-12-11T13:33:33.444Z,43.01
2018-12-11T13:36:02.387Z,43.56
2018-12-11T13:38:31.450Z,43.23
2018-12-11T13:41:00.093Z,43.08
2018-12-11T13:43:29.077Z,43.68
2018-12-11T13:45:58.700Z,44.92
2018-12-11T13:48:27.870Z,45.76
2018-12-11T13:50:57.034Z,46.99
2018-12-11T13:53:26.223Z,46.62
2018-12-11T13:55:55.188Z,47.07
2018-12-11T13:58:23.860Z,47.82
2018-12-11T14:00:52.853Z,47.98
2018-12-11T14:03:21.796Z,48.07
2018-12-11T14:05:50.846Z,48.47
2018-12-11T14:08:19.957Z,49.01
2018-12-11T14:10:48.866Z,48.23
2018-12-11T14:13:17.935Z,48.53
2018-12-11T14:15:46.694Z,48.27
2018-12-11T14:18:15.393Z,48.36
2018-12-11T14:20:44.452Z,49.23
2018-12-11T14:23:13.261Z,49.43
2018-12-11T14:25:42.283Z,49.38
2018-12-11T14:28:11.247Z,50.06
2018-12-11T14:30:40.385Z,49.98
2018-12-11T14:33:09.376Z,49.96
2018-12-11T14:35:38.126Z,51.01
2018-12-11T14:38:06.915Z,50.55
2018-12-11T14:40:36.139Z,51.12
2018-12-11T14:43:04.846Z,51.50
2018-12-11T14:45:33.542Z,51.57
2018-12-11T14:48:03.439Z,51.77
2018-12-11T14:50:33.406Z,52.16
2018-12-11T14:53:03.203Z,52.09
2018-12-11T14:55:32.204Z,52.90
2018-12-11T14:58:01.168Z,52.99
2018-12-11T15:00:30.136Z,52.92
2018-12-11T15:02:59.545Z,53.43
2018-12-11T15:05:28.441Z,53.40
2018-12-11T15:07:57.789Z,53.41
2018-12-11T15:10:27.279Z,52.97
2018-12-11T15:12:56.899Z,53.47
2018-12-11T15:15:25.847Z,52.99
2018-12-11T15:17:55.607Z,52.88
2018-12-11T15:20:24.996Z,53.14
2018-12-11T15:22:54.045Z,52.12
2018-12-11T15:25:23.257Z,52.68
2018-12-11T15:27:52.481Z,52.04
2018-12-11T15:30:21.294Z,52.35
2018-12-11T15:32:50.524Z,51.58
2018-12-11T15:35:19.475Z,52.28
2018-12-11T15:37:49.196Z,52.59
2018-12-11T15:40:17.974Z,53.20
2018-12-11T15:42:47.330Z,53.42
2018-12-11T15:45:16.347Z,53.53
2018-12-11T15:47:45.319Z,53.97
2018-12-11T15:50:14.351Z,54.53
2018-12-11T15:52:43.512Z,54.26
2018-12-11T15:55:12.654Z,54.59
2018-12-11T15:57:41.818Z,54.57
2018-12-11T16:00:12.298Z,54.82
2018-12-11T16:02:41.035Z,54.91
2018-12-11T16:05:10.086Z,54.29
2018-12-11T16:07:39.198Z,53.63
2018-12-11T16:10:08.756Z,54.13
2018-12-11T16:12:38.038Z,53.20
2018-12-11T16:15:06.965Z,53.73
2018-12-11T16:17:35.796Z,53.64
2018-12-11T16:20:05.443Z,53.45
2018-12-11T16:22:34.727Z,52.74
2018-12-11T16:25:03.676Z,53.08
2018-12-11T16:27:32.903Z,52.89
2018-12-11T16:30:02.176Z,53.58
2018-12-11T16:32:31.228Z,53.49
2018-12-11T16:35:00.154Z,53.83
2018-12-11T16:37:29.736Z,53.94
2018-12-11T16:40:04.584Z,54.30
2018-12-11T16:42:30.345Z,54.18
2018-12-11T16:44:59.098Z,54.13
2018-12-11T16:47:27.871Z,54.22
2018-12-11T16:49:56.953Z,54.51
2018-12-11T16:52:26.515Z,54.55
2018-12-11T16:54:55.397Z,54.48
2018-12-11T16:57:24.416Z,54.75
2018-12-11T16:59:53.438Z,54.58
2018-12-11T17:02:22.921Z,54.89
2018-12-11T17:04:52.010Z,54.75
2018-12-11T17:07:20.989Z,54.56
2018-12-11T17:09:50.267Z,55.46
2018-12-11T17:12:19.323Z,55.61
2018-12-11T17:14:48.425Z,55.34
2018-12-11T17:17:17.387Z,55.71
2018-12-11T17:19:46.644Z,55.89
2018-12-11T17:22:15.681Z,56.36
2018-12-11T17:24:44.381Z,56.66
2018-12-11T17:27:13.450Z,56.04
2018-12-11T17:29:43.235Z,55.91
2018-12-11T17:32:12.419Z,56.10
2018-12-11T17:34:41.584Z,55.80
2018-12-11T17:37:10.378Z,56.42
2018-12-11T17:39:39.274Z,56.38
2018-12-11T17:42:08.165Z,56.83
2018-12-11T17:44:37.476Z,56.88
2018-12-11T17:47:06.540Z,56.68
2018-12-11T17:49:35.671Z,56.88
2018-12-11T17:52:04.855Z,56.75
2018-12-11T17:54:33.924Z,56.29
2018-12-11T17:57:02.791Z,56.40
2018-12-11T17:59:31.880Z,56.11
2018-12-11T18:02:05.223Z,55.60
2018-12-11T18:04:34.370Z,55.71
2018-12-11T18:07:03.074Z,56.02
2018-12-11T18:09:32.052Z,56.10
2018-12-11T18:12:01.146Z,56.15
2018-12-11T18:14:30.379Z,56.01
2018-12-11T18:16:59.394Z,56.53
2018-12-11T18:19:28.547Z,56.89
2018-12-11T18:21:57.553Z,56.83
2018-12-11T18:24:26.313Z,57.17
2018-12-11T18:26:55.461Z,57.67
2018-12-11T18:29:24.648Z,57.77
2018-12-11T18:31:53.603Z,57.75
2018-12-11T18:34:22.923Z,58.01
2018-12-11T18:36:51.836Z,58.46
2018-12-11T18:39:20.792Z,57.90
2018-12-11T18:41:49.826Z,58.10
2018-12-11T18:44:19.026Z,57.64
2018-12-11T18:46:48.282Z,57.77
2018-12-11T18:49:16.943Z,58.07
2018-12-11T18:51:45.925Z,58.31
2018-12-11T18:54:15.171Z,58.14
2018-12-11T18:56:43.984Z,58.48
2018-12-11T18:59:13.049Z,58.17
2018-12-11T19:01:42.739Z,58.08
2018-12-11T19:04:11.444Z,57.82
2018-12-11T19:06:40.167Z,57.34
2018-12-11T19:09:09.176Z,56.94
2018-12-11T19:11:38.197Z,57.36
2018-12-11T19:14:07.109Z,57.06
2018-12-11T19:16:36.054Z,56.92
2018-12-11T19:19:05.433Z,56.47
2018-12-11T19:21:34.235Z,56.62
2018-12-11T19:24:09.757Z,56.98
2018-12-11T19:26:38.644Z,56.90
2018-12-11T19:29:07.630Z,57.12
2018-12-11T19:31:36.886Z,57.38
2018-12-11T19:34:06.061Z,57.10
2018-12-11T19:36:35.163Z,57.45
2018-12-11T19:39:05.359Z,56.99
2018-12-11T19:41:34.058Z,57.58
2018-12-11T19:44:03.156Z,57.26
2018-12-11T19:46:32.444Z,57.71
2018-12-11T19:49:01.668Z,57.90
2018-12-11T19:51:30.644Z,57.66
2018-12-11T19:53:59.655Z,57.44
2018-12-11T19:56:28.639Z,57.95
2018-12-11T19:58:57.657Z,57.91
2018-12-11T20:01:26.479Z,57.63
2018-12-11T20:03:55.483Z,57.87
2018-12-11T20:06:24.626Z,57.42
2018-12-11T20:08:53.536Z,57.56
2018-12-11T20:11:22.346Z,57.48
2018-12-11T20:13:51.587Z,57.48
2018-12-11T20:16:20.333Z,57.77
2018-12-11T20:18:49.130Z,57.95
2018-12-11T20:21:18.271Z,58.05
2018-12-11T20:23:47.629Z,57.95
2018-12-11T20:26:16.433Z,58.08
2018-12-11T20:28:45.371Z,58.30
2018-12-11T20:31:14.472Z,58.96
2018-12-11T20:33:43.653Z,59.05
2018-12-11T20:36:12.411Z,59.37
2018-12-11T20:38:42.352Z,59.07
2018-12-11T20:41:11.635Z,59.57
2018-12-11T20:43:40.742Z,59.39
2018-12-11T20:46:09.937Z,59.51
2018-12-11T20:48:38.875Z,59.78
2018-12-11T20:51:07.714Z,59.59
2018-12-11T20:53:36.819Z,60.03
2018-12-11T20:56:05.940Z,59.89
2018-12-11T20:58:35.023Z,60.12
2018-12-11T21:01:03.986Z,60.39
2018-12-11T21:03:32.695Z,60.38
2018-12-11T21:06:01.630Z,60.61
2018-12-11T21:08:31.578Z,61.44
2018-12-11T21:11:00.709Z,61.01
2018-12-11T21:13:30.064Z,61.43
2018-12-11T21:15:59.136Z,61.40
2018-12-11T21:18:28.807Z,61.57
2018-12-11T21:20:58.934Z,61.49
2018-12-11T21:23:28.098Z,61.37
2018-12-11T21:25:57.120Z,61.44
2018-12-11T21:28:26.423Z,61.15
2018-12-11T21:30:55.138Z,61.41
2018-12-11T21:33:24.055Z,61.81
2018-12-11T21:35:53.192Z,61.63
2018-12-11T21:38:22.414Z,61.28
2018-12-11T21:40:51.421Z,61.32
2018-12-11T21:43:20.463Z,61.39
2018-12-11T21:45:49.309Z,61.44
2018-12-11T21:48:18.465Z,61.60
2018-12-11T21:50:47.224Z,61.58
2018-12-11T21:53:16.357Z,62.01
2018-12-11T21:55:45.401Z,62.20
2018-12-11T21:58:14.261Z,61.94
2018-12-11T22:00:43.414Z,62.28
2018-12-11T22:03:12.442Z,62.50
2018-12-11T22:05:41.348Z,62.61
2018-12-11T22:08:10.248Z,62.20
2018-12-11T22:10:39.303Z,62.62
2018-12-11T22:13:08.424Z,62.51
2018-12-11T22:15:37.876Z,62.64
2018-12-11T22:18:07.006Z,63.32
2018-12-11T22:20:36.198Z,63.20
2018-12-11T22:23:05.163Z,63.38
2018-12-11T22:25:33.922Z,63.27
2018-12-11T22:28:03.359Z,63.84
2018-12-11T22:30:32.291Z,63.66
2018-12-11T22:33:01.274Z,63.64
2018-12-11T22:35:30.268Z,63.93
2018-12-11T22:37:59.365Z,63.73
2018-12-11T22:40:28.135Z,63.55
2018-12-11T22:42:56.864Z,63.92
2018-12-11T22:45:25.876Z,63.67
2018-12-11T22:47:54.641Z,63.87
2018-12-11T22:50:23.368Z,64.42
2018-12-11T22:52:52.146Z,63.79
2018-12-11T22:55:21.050Z,64.20
2018-12-11T22:57:50.180Z,64.01
2018-12-11T23:00:19.910Z,64.36
2018-12-11T23:02:49.092Z,64.10
2018-12-11T23:05:18.005Z,64.30
2018-12-11T23:07:47.086Z,64.28
2018-12-11T23:10:16.284Z,64.26
2018-12-11T23:12:45.029Z,64.76
2018-12-11T23:15:14.053Z,64.55
2018-12-11T23:17:43.161Z,64.88
2018-12-11T23:20:12.237Z,64.59
2018-12-11T23:22:41.445Z,64.91
2018-12-11T23:25:10.544Z,64.54
2018-12-11T23:27:39.337Z,64.52
2018-12-11T23:30:08.399Z,64.31
2018-12-11T23:32:37.308Z,64.05
2018-12-11T23:35:07.748Z,63.94
2018-12-11T23:37:37.354Z,63.63
2018-12-11T23:40:06.843Z,63.73
2018-12-11T23:42:35.948Z,63.43
2018-12-11T23:45:05.399Z,63.36
2018-12-11T23:47:34.436Z,62.86
2018-12-11T23:50:03.183Z,63.67
2018-12-11T23:52:31.989Z,62.22
2018-12-11T23:55:00.810Z,61.94
2018-12-11T23:57:29.497Z,61.98
2018-12-11T23:59:58.615Z,62.38
